Plattekill, NY (12568)

3:28 PM EDT on August 31, 2015 (GMT -0400)
APRSWXNET | | Change Station
CLOSE
Current Station
Personal Weather Station
Location: Plattekill, NY
Elevation: 600 ft
Nearby Weather Stations

Elev 600 ft 41.61 °N, 74.09 °W | Updated 25 minutes ago

Partly Cloudy
Partly Cloudy
87 °F
Feels Like 92 °F
N
4
Wind Variable Wind from South
Gusts 13.0 mph

Today
High -- | Low -- °F
--% Chance of Precip.
Yesterday
High -- | Low -- °F
Precip. -- in
6:20 AM 7:31 PM
Waning Gibbous, 94% visible
Pressure 29.99 in
Visibility 15.0 miles
Clouds Few 5000 ft
Scattered Clouds 10000 ft
Heat Index 92 °F
Dew Point 70 °F
Humidity 58%
Rainfall in
Snow Depth Not available.
UV 6 out of 12
Pollen 10.00 out of 12
Air Quality Not available.
Flu Activity Not available.
METAR KSWF 311845Z 26010G18KT 15SM FEW050 SCT100 30/22 A2999 RMK HZ
Pressure 29.99 in
Visibility 15.0 miles
Clouds Few 5000 ft
Scattered Clouds 10000 ft
Heat Index 92 °F
Dew Point 70 °F
Humidity 58%
Rainfall in
Snow Depth Not available.
UV 6 out of 12
Pollen 10.00 out of 12
Air Quality Not available.
Flu Activity Not available.
METAR KSWF 311845Z 26010G18KT 15SM FEW050 SCT100 30/22 A2999 RMK HZ

10-Day Weather Forecast

×

Almanac

Astronomy

Aug. 31, 2015 Rise Set
Actual Time
Civil Twilight
Nautical Twilight
Astronomical Twilight
Moon
Length of Visible Light
Length of Day
Tomorrow will be .
, % of the Moon is Illuminated

Today's Extremes

State Highs State Lows

Community

WunderPhotos

Upload Photos

1,851,341 photos uploaded!

WunderBlogs® & News

Nearby

Air Quality

  Air Quality AQ Index Pollutant
Not available.

Snow Depth

Station Depth Elevation

Earthquake Activity

City Distance Mag. Time & Date
Minimum magnitude displayed is 2.5.

Coastal Water Temperatures

Place Temperature

Stations

Nearby Weather Stations

Station Location Temp. Windchill Dew Point Humidity Wind Precip. Elev Updated Type